sensor_id;sensor_type;location;lat;lon;timestamp;P1;durP1;ratioP1;P2;durP2;ratioP2
12703;SDS011;6416;52.182;7.650;2023-04-25T00:00:57;4.40;;;2.63;;
12703;SDS011;6416;52.182;7.650;2023-04-25T00:03:23;4.33;;;2.80;;
12703;SDS011;6416;52.182;7.650;2023-04-25T00:05:48;3.80;;;2.50;;
12703;SDS011;6416;52.182;7.650;2023-04-25T00:08:14;3.37;;;2.30;;
12703;SDS011;6416;52.182;7.650;2023-04-25T00:10:39;5.57;;;2.73;;
12703;SDS011;6416;52.182;7.650;2023-04-25T00:13:05;4.10;;;2.53;;
12703;SDS011;6416;52.182;7.650;2023-04-25T00:15:30;5.17;;;2.47;;
12703;SDS011;6416;52.182;7.650;2023-04-25T00:17:56;3.90;;;2.60;;
12703;SDS011;6416;52.182;7.650;2023-04-25T00:20:21;3.57;;;2.33;;
12703;SDS011;6416;52.182;7.650;2023-04-25T00:22:47;2.70;;;2.10;;
12703;SDS011;6416;52.182;7.650;2023-04-25T00:25:12;3.27;;;2.10;;
12703;SDS011;6416;52.182;7.650;2023-04-25T00:27:38;3.70;;;1.90;;
12703;SDS011;6416;52.182;7.650;2023-04-25T00:30:03;2.40;;;1.83;;
12703;SDS011;6416;52.182;7.650;2023-04-25T00:32:29;2.63;;;2.10;;
12703;SDS011;6416;52.182;7.650;2023-04-25T00:34:55;4.87;;;2.10;;
12703;SDS011;6416;52.182;7.650;2023-04-25T00:37:20;1.83;;;1.73;;
12703;SDS011;6416;52.182;7.650;2023-04-25T00:39:46;3.33;;;2.43;;
12703;SDS011;6416;52.182;7.650;2023-04-25T00:42:11;2.20;;;1.97;;
12703;SDS011;6416;52.182;7.650;2023-04-25T00:44:37;3.07;;;2.00;;
12703;SDS011;6416;52.182;7.650;2023-04-25T00:47:03;2.60;;;2.00;;
12703;SDS011;6416;52.182;7.650;2023-04-25T00:49:29;2.70;;;2.00;;
12703;SDS011;6416;52.182;7.650;2023-04-25T00:51:55;2.63;;;1.93;;
12703;SDS011;6416;52.182;7.650;2023-04-25T00:54:21;5.27;;;2.20;;
12703;SDS011;6416;52.182;7.650;2023-04-25T00:56:47;3.53;;;2.03;;
12703;SDS011;6416;52.182;7.650;2023-04-25T00:59:15;4.60;;;2.53;;
12703;SDS011;6416;52.182;7.650;2023-04-25T01:01:41;5.57;;;3.33;;
12703;SDS011;6416;52.182;7.650;2023-04-25T01:04:07;6.20;;;2.77;;
12703;SDS011;6416;52.182;7.650;2023-04-25T01:06:32;3.30;;;2.00;;
12703;SDS011;6416;52.182;7.650;2023-04-25T01:08:58;4.10;;;2.33;;
12703;SDS011;6416;52.182;7.650;2023-04-25T01:11:24;5.50;;;2.40;;
12703;SDS011;6416;52.182;7.650;2023-04-25T01:13:50;5.23;;;2.37;;
12703;SDS011;6416;52.182;7.650;2023-04-25T01:16:16;5.23;;;2.47;;
12703;SDS011;6416;52.182;7.650;2023-04-25T01:18:41;8.47;;;2.57;;
12703;SDS011;6416;52.182;7.650;2023-04-25T01:21:10;5.30;;;2.37;;
12703;SDS011;6416;52.182;7.650;2023-04-25T01:23:37;6.37;;;2.70;;
12703;SDS011;6416;52.182;7.650;2023-04-25T01:26:04;6.83;;;2.73;;
12703;SDS011;6416;52.182;7.650;2023-04-25T01:28:31;5.23;;;2.47;;
12703;SDS011;6416;52.182;7.650;2023-04-25T01:30:58;5.30;;;2.60;;
12703;SDS011;6416;52.182;7.650;2023-04-25T01:33:24;5.17;;;2.40;;
12703;SDS011;6416;52.182;7.650;2023-04-25T01:35:49;8.07;;;2.90;;
12703;SDS011;6416;52.182;7.650;2023-04-25T01:38:15;5.67;;;2.60;;
12703;SDS011;6416;52.182;7.650;2023-04-25T01:40:41;6.67;;;2.87;;
12703;SDS011;6416;52.182;7.650;2023-04-25T01:43:08;7.13;;;2.90;;
12703;SDS011;6416;52.182;7.650;2023-04-25T01:45:34;5.73;;;2.63;;
12703;SDS011;6416;52.182;7.650;2023-04-25T01:47:59;8.37;;;3.03;;
12703;SDS011;6416;52.182;7.650;2023-04-25T01:50:25;9.03;;;3.20;;
12703;SDS011;6416;52.182;7.650;2023-04-25T01:52:50;7.73;;;2.97;;
12703;SDS011;6416;52.182;7.650;2023-04-25T01:55:16;9.57;;;3.03;;
12703;SDS011;6416;52.182;7.650;2023-04-25T01:57:41;7.07;;;2.60;;
12703;SDS011;6416;52.182;7.650;2023-04-25T02:00:07;5.97;;;2.97;;
12703;SDS011;6416;52.182;7.650;2023-04-25T02:02:33;7.03;;;2.87;;
12703;SDS011;6416;52.182;7.650;2023-04-25T02:04:58;7.63;;;2.77;;
12703;SDS011;6416;52.182;7.650;2023-04-25T02:07:25;6.17;;;2.53;;
12703;SDS011;6416;52.182;7.650;2023-04-25T02:09:51;9.77;;;2.87;;
12703;SDS011;6416;52.182;7.650;2023-04-25T02:12:16;6.93;;;3.00;;
12703;SDS011;6416;52.182;7.650;2023-04-25T02:14:42;8.20;;;2.60;;
12703;SDS011;6416;52.182;7.650;2023-04-25T02:17:08;7.47;;;2.93;;
12703;SDS011;6416;52.182;7.650;2023-04-25T02:19:33;5.40;;;2.70;;
12703;SDS011;6416;52.182;7.650;2023-04-25T02:21:59;7.00;;;3.13;;
12703;SDS011;6416;52.182;7.650;2023-04-25T02:24:24;7.67;;;2.90;;
12703;SDS011;6416;52.182;7.650;2023-04-25T02:26:50;6.70;;;2.77;;
12703;SDS011;6416;52.182;7.650;2023-04-25T02:29:15;4.70;;;2.50;;
12703;SDS011;6416;52.182;7.650;2023-04-25T02:31:41;6.57;;;2.90;;
12703;SDS011;6416;52.182;7.650;2023-04-25T02:34:07;6.93;;;2.73;;
12703;SDS011;6416;52.182;7.650;2023-04-25T02:36:32;8.63;;;3.20;;
12703;SDS011;6416;52.182;7.650;2023-04-25T02:38:57;7.10;;;2.50;;
12703;SDS011;6416;52.182;7.650;2023-04-25T02:41:23;6.63;;;2.97;;
12703;SDS011;6416;52.182;7.650;2023-04-25T02:43:48;4.73;;;2.43;;
12703;SDS011;6416;52.182;7.650;2023-04-25T02:46:14;7.03;;;3.03;;
12703;SDS011;6416;52.182;7.650;2023-04-25T02:48:39;7.77;;;3.17;;
12703;SDS011;6416;52.182;7.650;2023-04-25T02:51:05;6.10;;;2.87;;
12703;SDS011;6416;52.182;7.650;2023-04-25T02:53:30;6.03;;;2.90;;
12703;SDS011;6416;52.182;7.650;2023-04-25T02:55:56;8.07;;;2.80;;
12703;SDS011;6416;52.182;7.650;2023-04-25T02:58:21;7.03;;;2.87;;
12703;SDS011;6416;52.182;7.650;2023-04-25T03:00:47;6.60;;;3.37;;
12703;SDS011;6416;52.182;7.650;2023-04-25T03:03:12;5.77;;;2.73;;
12703;SDS011;6416;52.182;7.650;2023-04-25T03:05:38;9.63;;;2.90;;
12703;SDS011;6416;52.182;7.650;2023-04-25T03:08:03;7.50;;;2.83;;
12703;SDS011;6416;52.182;7.650;2023-04-25T03:10:29;5.63;;;2.63;;
12703;SDS011;6416;52.182;7.650;2023-04-25T03:12:54;7.57;;;2.77;;
12703;SDS011;6416;52.182;7.650;2023-04-25T03:15:20;7.27;;;3.57;;
12703;SDS011;6416;52.182;7.650;2023-04-25T03:17:45;6.93;;;3.40;;
12703;SDS011;6416;52.182;7.650;2023-04-25T03:20:11;7.80;;;3.07;;
12703;SDS011;6416;52.182;7.650;2023-04-25T03:22:36;7.00;;;2.90;;
12703;SDS011;6416;52.182;7.650;2023-04-25T03:25:02;8.77;;;3.10;;
12703;SDS011;6416;52.182;7.650;2023-04-25T03:27:28;11.27;;;3.10;;
12703;SDS011;6416;52.182;7.650;2023-04-25T03:29:53;6.57;;;2.93;;
12703;SDS011;6416;52.182;7.650;2023-04-25T03:32:18;6.60;;;2.93;;
12703;SDS011;6416;52.182;7.650;2023-04-25T03:34:44;7.57;;;2.93;;
12703;SDS011;6416;52.182;7.650;2023-04-25T03:37:09;7.13;;;3.03;;
12703;SDS011;6416;52.182;7.650;2023-04-25T03:39:35;8.33;;;3.00;;
12703;SDS011;6416;52.182;7.650;2023-04-25T03:42:00;6.90;;;2.80;;
12703;SDS011;6416;52.182;7.650;2023-04-25T03:44:26;8.03;;;3.00;;
12703;SDS011;6416;52.182;7.650;2023-04-25T03:46:51;6.07;;;2.50;;
12703;SDS011;6416;52.182;7.650;2023-04-25T03:49:17;6.43;;;3.07;;
12703;SDS011;6416;52.182;7.650;2023-04-25T03:51:42;4.23;;;2.60;;
12703;SDS011;6416;52.182;7.650;2023-04-25T03:54:08;6.97;;;2.73;;
12703;SDS011;6416;52.182;7.650;2023-04-25T03:56:33;3.90;;;2.50;;
12703;SDS011;6416;52.182;7.650;2023-04-25T03:58:58;7.93;;;2.87;;
12703;SDS011;6416;52.182;7.650;2023-04-25T04:01:24;7.50;;;3.50;;
12703;SDS011;6416;52.182;7.650;2023-04-25T04:03:49;7.57;;;3.20;;
12703;SDS011;6416;52.182;7.650;2023-04-25T04:06:15;7.50;;;3.30;;
12703;SDS011;6416;52.182;7.650;2023-04-25T04:08:41;8.80;;;3.10;;
12703;SDS011;6416;52.182;7.650;2023-04-25T04:11:07;11.50;;;2.90;;
12703;SDS011;6416;52.182;7.650;2023-04-25T04:13:32;9.17;;;3.37;;
12703;SDS011;6416;52.182;7.650;2023-04-25T04:15:57;8.37;;;3.30;;
12703;SDS011;6416;52.182;7.650;2023-04-25T04:18:23;7.50;;;3.10;;
12703;SDS011;6416;52.182;7.650;2023-04-25T04:20:49;6.77;;;2.73;;
12703;SDS011;6416;52.182;7.650;2023-04-25T04:23:14;7.77;;;3.17;;
12703;SDS011;6416;52.182;7.650;2023-04-25T04:25:39;6.60;;;2.93;;
12703;SDS011;6416;52.182;7.650;2023-04-25T04:28:05;6.33;;;3.50;;
12703;SDS011;6416;52.182;7.650;2023-04-25T04:30:31;7.63;;;3.30;;
12703;SDS011;6416;52.182;7.650;2023-04-25T04:32:57;8.83;;;3.33;;
12703;SDS011;6416;52.182;7.650;2023-04-25T04:35:23;5.97;;;3.10;;
12703;SDS011;6416;52.182;7.650;2023-04-25T04:37:49;9.57;;;3.50;;
12703;SDS011;6416;52.182;7.650;2023-04-25T04:40:14;6.93;;;3.00;;
12703;SDS011;6416;52.182;7.650;2023-04-25T04:42:41;7.07;;;3.00;;
12703;SDS011;6416;52.182;7.650;2023-04-25T04:45:07;5.13;;;2.93;;
12703;SDS011;6416;52.182;7.650;2023-04-25T04:47:33;6.77;;;2.67;;
12703;SDS011;6416;52.182;7.650;2023-04-25T04:49:58;7.40;;;3.00;;
12703;SDS011;6416;52.182;7.650;2023-04-25T04:52:24;11.90;;;3.37;;
12703;SDS011;6416;52.182;7.650;2023-04-25T04:54:49;8.87;;;2.83;;
12703;SDS011;6416;52.182;7.650;2023-04-25T04:57:15;7.90;;;2.77;;
12703;SDS011;6416;52.182;7.650;2023-04-25T04:59:40;8.00;;;3.13;;
12703;SDS011;6416;52.182;7.650;2023-04-25T05:02:06;5.13;;;2.60;;
12703;SDS011;6416;52.182;7.650;2023-04-25T05:04:31;7.67;;;2.90;;
12703;SDS011;6416;52.182;7.650;2023-04-25T05:06:56;7.40;;;2.77;;
12703;SDS011;6416;52.182;7.650;2023-04-25T05:09:22;5.83;;;2.70;;
12703;SDS011;6416;52.182;7.650;2023-04-25T05:11:47;8.27;;;3.23;;
12703;SDS011;6416;52.182;7.650;2023-04-25T05:14:13;6.83;;;3.30;;
12703;SDS011;6416;52.182;7.650;2023-04-25T05:16:38;8.07;;;3.30;;
12703;SDS011;6416;52.182;7.650;2023-04-25T05:19:04;8.93;;;3.03;;
12703;SDS011;6416;52.182;7.650;2023-04-25T05:21:29;6.20;;;2.77;;
12703;SDS011;6416;52.182;7.650;2023-04-25T05:23:55;7.73;;;3.40;;
12703;SDS011;6416;52.182;7.650;2023-04-25T05:26:20;6.10;;;2.90;;
12703;SDS011;6416;52.182;7.650;2023-04-25T05:28:46;6.17;;;3.03;;
12703;SDS011;6416;52.182;7.650;2023-04-25T05:31:11;6.77;;;2.63;;
12703;SDS011;6416;52.182;7.650;2023-04-25T05:33:37;8.00;;;3.58;;
12703;SDS011;6416;52.182;7.650;2023-04-25T05:36:02;9.23;;;3.57;;
12703;SDS011;6416;52.182;7.650;2023-04-25T05:38:28;5.03;;;2.77;;
12703;SDS011;6416;52.182;7.650;2023-04-25T05:40:53;7.57;;;2.83;;
12703;SDS011;6416;52.182;7.650;2023-04-25T05:43:19;7.43;;;2.83;;
12703;SDS011;6416;52.182;7.650;2023-04-25T05:45:44;5.37;;;2.43;;
12703;SDS011;6416;52.182;7.650;2023-04-25T05:48:10;10.27;;;3.40;;
12703;SDS011;6416;52.182;7.650;2023-04-25T05:50:35;5.97;;;2.90;;
12703;SDS011;6416;52.182;7.650;2023-04-25T05:53:01;8.57;;;2.63;;
12703;SDS011;6416;52.182;7.650;2023-04-25T05:55:26;8.60;;;2.90;;
12703;SDS011;6416;52.182;7.650;2023-04-25T05:57:52;5.73;;;2.37;;
12703;SDS011;6416;52.182;7.650;2023-04-25T06:00:17;9.47;;;2.63;;
12703;SDS011;6416;52.182;7.650;2023-04-25T06:02:43;5.43;;;2.77;;
12703;SDS011;6416;52.182;7.650;2023-04-25T06:05:08;9.87;;;3.97;;
12703;SDS011;6416;52.182;7.650;2023-04-25T06:07:34;6.67;;;2.70;;
12703;SDS011;6416;52.182;7.650;2023-04-25T06:09:59;6.50;;;2.80;;
12703;SDS011;6416;52.182;7.650;2023-04-25T06:12:25;7.43;;;2.63;;
12703;SDS011;6416;52.182;7.650;2023-04-25T06:14:50;5.20;;;2.20;;
12703;SDS011;6416;52.182;7.650;2023-04-25T06:17:16;5.53;;;2.80;;
12703;SDS011;6416;52.182;7.650;2023-04-25T06:19:41;7.77;;;2.60;;
12703;SDS011;6416;52.182;7.650;2023-04-25T06:22:07;5.57;;;2.27;;
12703;SDS011;6416;52.182;7.650;2023-04-25T06:24:32;9.13;;;2.60;;
12703;SDS011;6416;52.182;7.650;2023-04-25T06:26:58;7.30;;;2.50;;
12703;SDS011;6416;52.182;7.650;2023-04-25T06:29:24;5.57;;;2.10;;
12703;SDS011;6416;52.182;7.650;2023-04-25T06:31:49;6.07;;;2.33;;
12703;SDS011;6416;52.182;7.650;2023-04-25T06:34:15;6.67;;;2.43;;
12703;SDS011;6416;52.182;7.650;2023-04-25T06:36:40;4.87;;;2.37;;
12703;SDS011;6416;52.182;7.650;2023-04-25T06:39:06;6.27;;;2.73;;
12703;SDS011;6416;52.182;7.650;2023-04-25T06:41:31;5.53;;;2.10;;
12703;SDS011;6416;52.182;7.650;2023-04-25T06:43:57;6.30;;;2.17;;
12703;SDS011;6416;52.182;7.650;2023-04-25T06:46:22;5.80;;;2.17;;
12703;SDS011;6416;52.182;7.650;2023-04-25T06:48:48;5.30;;;2.37;;
12703;SDS011;6416;52.182;7.650;2023-04-25T06:51:13;6.97;;;2.20;;
12703;SDS011;6416;52.182;7.650;2023-04-25T06:53:39;3.90;;;1.87;;
12703;SDS011;6416;52.182;7.650;2023-04-25T06:56:05;3.37;;;1.80;;
12703;SDS011;6416;52.182;7.650;2023-04-25T06:58:31;4.60;;;1.90;;
12703;SDS011;6416;52.182;7.650;2023-04-25T07:00:56;5.20;;;1.87;;
12703;SDS011;6416;52.182;7.650;2023-04-25T07:03:22;6.00;;;2.10;;
12703;SDS011;6416;52.182;7.650;2023-04-25T07:05:47;4.40;;;2.10;;
12703;SDS011;6416;52.182;7.650;2023-04-25T07:08:13;6.13;;;2.10;;
12703;SDS011;6416;52.182;7.650;2023-04-25T07:10:38;5.13;;;1.50;;
12703;SDS011;6416;52.182;7.650;2023-04-25T07:13:04;5.20;;;2.00;;
12703;SDS011;6416;52.182;7.650;2023-04-25T07:15:29;4.67;;;1.80;;
12703;SDS011;6416;52.182;7.650;2023-04-25T07:17:55;7.10;;;2.20;;
12703;SDS011;6416;52.182;7.650;2023-04-25T07:20:20;4.37;;;1.90;;
12703;SDS011;6416;52.182;7.650;2023-04-25T07:22:46;5.07;;;1.83;;
12703;SDS011;6416;52.182;7.650;2023-04-25T07:25:11;5.70;;;1.90;;
12703;SDS011;6416;52.182;7.650;2023-04-25T07:27:36;3.43;;;1.70;;
12703;SDS011;6416;52.182;7.650;2023-04-25T07:30:02;6.47;;;2.10;;
12703;SDS011;6416;52.182;7.650;2023-04-25T07:32:28;5.00;;;1.67;;
12703;SDS011;6416;52.182;7.650;2023-04-25T07:34:54;5.80;;;2.20;;
12703;SDS011;6416;52.182;7.650;2023-04-25T07:37:19;4.70;;;2.10;;
12703;SDS011;6416;52.182;7.650;2023-04-25T07:39:45;3.60;;;1.80;;
12703;SDS011;6416;52.182;7.650;2023-04-25T07:42:10;5.17;;;2.20;;
12703;SDS011;6416;52.182;7.650;2023-04-25T07:44:36;6.27;;;1.80;;
12703;SDS011;6416;52.182;7.650;2023-04-25T07:47:01;3.30;;;1.60;;
12703;SDS011;6416;52.182;7.650;2023-04-25T07:49:27;5.73;;;1.97;;
12703;SDS011;6416;52.182;7.650;2023-04-25T07:51:52;4.60;;;2.00;;
12703;SDS011;6416;52.182;7.650;2023-04-25T07:54:18;4.63;;;1.73;;
12703;SDS011;6416;52.182;7.650;2023-04-25T07:56:43;3.50;;;1.50;;
12703;SDS011;6416;52.182;7.650;2023-04-25T07:59:09;3.15;;;1.65;;
12703;SDS011;6416;52.182;7.650;2023-04-25T08:01:34;4.85;;;1.92;;
12703;SDS011;6416;52.182;7.650;2023-04-25T08:04:00;3.53;;;1.75;;
12703;SDS011;6416;52.182;7.650;2023-04-25T08:06:25;3.03;;;1.73;;
12703;SDS011;6416;52.182;7.650;2023-04-25T08:08:51;3.63;;;1.65;;
12703;SDS011;6416;52.182;7.650;2023-04-25T08:11:16;3.00;;;1.50;;
12703;SDS011;6416;52.182;7.650;2023-04-25T08:13:42;4.72;;;1.40;;
12703;SDS011;6416;52.182;7.650;2023-04-25T08:16:07;2.92;;;1.33;;
12703;SDS011;6416;52.182;7.650;2023-04-25T08:18:33;5.90;;;1.63;;
12703;SDS011;6416;52.182;7.650;2023-04-25T08:20:58;2.47;;;1.30;;
12703;SDS011;6416;52.182;7.650;2023-04-25T08:23:24;2.78;;;1.23;;
12703;SDS011;6416;52.182;7.650;2023-04-25T08:25:49;5.85;;;1.90;;
12703;SDS011;6416;52.182;7.650;2023-04-25T08:28:14;3.85;;;1.40;;
12703;SDS011;6416;52.182;7.650;2023-04-25T08:30:40;4.43;;;1.67;;
12703;SDS011;6416;52.182;7.650;2023-04-25T08:33:05;4.53;;;1.60;;
12703;SDS011;6416;52.182;7.650;2023-04-25T08:35:31;3.25;;;1.25;;
12703;SDS011;6416;52.182;7.650;2023-04-25T08:37:57;2.92;;;1.48;;
12703;SDS011;6416;52.182;7.650;2023-04-25T08:40:23;2.72;;;1.25;;
12703;SDS011;6416;52.182;7.650;2023-04-25T08:42:53;3.47;;;1.58;;
12703;SDS011;6416;52.182;7.650;2023-04-25T08:45:20;3.17;;;1.50;;
12703;SDS011;6416;52.182;7.650;2023-04-25T08:47:45;2.42;;;1.42;;
12703;SDS011;6416;52.182;7.650;2023-04-25T08:50:12;4.00;;;1.60;;
12703;SDS011;6416;52.182;7.650;2023-04-25T08:52:40;3.65;;;1.58;;
12703;SDS011;6416;52.182;7.650;2023-04-25T08:55:09;3.35;;;1.45;;
12703;SDS011;6416;52.182;7.650;2023-04-25T08:57:36;2.65;;;1.30;;
12703;SDS011;6416;52.182;7.650;2023-04-25T09:00:03;3.58;;;1.60;;
12703;SDS011;6416;52.182;7.650;2023-04-25T09:02:28;2.50;;;1.60;;
12703;SDS011;6416;52.182;7.650;2023-04-25T09:04:54;4.13;;;1.50;;
12703;SDS011;6416;52.182;7.650;2023-04-25T09:07:21;2.33;;;1.10;;
12703;SDS011;6416;52.182;7.650;2023-04-25T09:09:46;3.35;;;1.45;;
12703;SDS011;6416;52.182;7.650;2023-04-25T09:12:12;2.65;;;1.35;;
12703;SDS011;6416;52.182;7.650;2023-04-25T09:14:38;3.45;;;1.30;;
12703;SDS011;6416;52.182;7.650;2023-04-25T09:17:04;3.03;;;1.42;;
12703;SDS011;6416;52.182;7.650;2023-04-25T09:19:30;2.97;;;1.40;;
12703;SDS011;6416;52.182;7.650;2023-04-25T09:21:58;3.70;;;1.38;;
12703;SDS011;6416;52.182;7.650;2023-04-25T09:26:57;3.45;;;1.35;;
12703;SDS011;6416;52.182;7.650;2023-04-25T09:29:29;4.18;;;1.23;;
12703;SDS011;6416;52.182;7.650;2023-04-25T09:34:47;3.20;;;1.23;;
12703;SDS011;6416;52.182;7.650;2023-04-25T09:37:24;2.63;;;1.05;;
12703;SDS011;6416;52.182;7.650;2023-04-25T09:39:53;3.45;;;1.05;;
12703;SDS011;6416;52.182;7.650;2023-04-25T09:42:23;2.30;;;1.10;;
12703;SDS011;6416;52.182;7.650;2023-04-25T09:44:54;3.20;;;1.20;;
12703;SDS011;6416;52.182;7.650;2023-04-25T09:47:20;2.83;;;1.33;;
12703;SDS011;6416;52.182;7.650;2023-04-25T09:49:47;3.95;;;1.38;;
12703;SDS011;6416;52.182;7.650;2023-04-25T09:52:17;2.97;;;0.90;;
12703;SDS011;6416;52.182;7.650;2023-04-25T09:54:44;1.90;;;0.98;;
12703;SDS011;6416;52.182;7.650;2023-04-25T09:57:11;3.58;;;1.30;;
12703;SDS011;6416;52.182;7.650;2023-04-25T09:59:38;2.40;;;1.20;;
12703;SDS011;6416;52.182;7.650;2023-04-25T10:02:07;2.58;;;1.30;;
12703;SDS011;6416;52.182;7.650;2023-04-25T10:04:34;3.13;;;1.50;;
12703;SDS011;6416;52.182;7.650;2023-04-25T10:07:00;4.07;;;1.58;;
12703;SDS011;6416;52.182;7.650;2023-04-25T10:09:28;2.60;;;1.20;;
12703;SDS011;6416;52.182;7.650;2023-04-25T10:11:55;4.72;;;1.77;;
12703;SDS011;6416;52.182;7.650;2023-04-25T10:14:21;3.25;;;1.65;;
12703;SDS011;6416;52.182;7.650;2023-04-25T10:16:48;3.65;;;1.55;;
12703;SDS011;6416;52.182;7.650;2023-04-25T10:19:13;3.72;;;1.20;;
12703;SDS011;6416;52.182;7.650;2023-04-25T10:21:44;2.38;;;1.25;;
12703;SDS011;6416;52.182;7.650;2023-04-25T10:24:14;2.72;;;1.80;;
12703;SDS011;6416;52.182;7.650;2023-04-25T10:26:40;3.67;;;1.13;;
12703;SDS011;6416;52.182;7.650;2023-04-25T10:29:06;3.00;;;1.30;;
12703;SDS011;6416;52.182;7.650;2023-04-25T10:31:32;2.53;;;1.42;;
12703;SDS011;6416;52.182;7.650;2023-04-25T10:33:57;3.10;;;1.30;;
12703;SDS011;6416;52.182;7.650;2023-04-25T10:36:24;3.92;;;1.60;;
12703;SDS011;6416;52.182;7.650;2023-04-25T10:38:50;2.85;;;1.35;;
12703;SDS011;6416;52.182;7.650;2023-04-25T10:41:19;2.10;;;1.33;;
12703;SDS011;6416;52.182;7.650;2023-04-25T10:43:46;2.83;;;1.42;;
12703;SDS011;6416;52.182;7.650;2023-04-25T10:46:15;3.03;;;1.27;;
12703;SDS011;6416;52.182;7.650;2023-04-25T10:48:59;2.50;;;1.23;;
12703;SDS011;6416;52.182;7.650;2023-04-25T10:51:33;2.15;;;1.13;;
12703;SDS011;6416;52.182;7.650;2023-04-25T10:56:28;2.63;;;1.10;;
12703;SDS011;6416;52.182;7.650;2023-04-25T10:59:06;2.85;;;1.20;;
12703;SDS011;6416;52.182;7.650;2023-04-25T11:01:42;2.47;;;1.00;;
12703;SDS011;6416;52.182;7.650;2023-04-25T11:09:38;2.03;;;1.00;;
12703;SDS011;6416;52.182;7.650;2023-04-25T11:12:06;1.27;;;1.00;;
12703;SDS011;6416;52.182;7.650;2023-04-25T11:14:33;2.17;;;1.08;;
12703;SDS011;6416;52.182;7.650;2023-04-25T11:16:58;2.05;;;1.10;;
12703;SDS011;6416;52.182;7.650;2023-04-25T11:19:25;1.67;;;1.15;;
12703;SDS011;6416;52.182;7.650;2023-04-25T11:21:55;1.48;;;1.27;;
12703;SDS011;6416;52.182;7.650;2023-04-25T11:24:31;2.85;;;1.10;;
12703;SDS011;6416;52.182;7.650;2023-04-25T11:26:58;1.65;;;0.82;;
12703;SDS011;6416;52.182;7.650;2023-04-25T11:29:28;1.48;;;1.00;;
12703;SDS011;6416;52.182;7.650;2023-04-25T11:31:54;1.15;;;0.80;;
12703;SDS011;6416;52.182;7.650;2023-04-25T11:34:20;1.42;;;0.70;;
12703;SDS011;6416;52.182;7.650;2023-04-25T11:36:46;1.85;;;0.77;;
12703;SDS011;6416;52.182;7.650;2023-04-25T11:39:11;1.20;;;0.63;;
12703;SDS011;6416;52.182;7.650;2023-04-25T11:41:37;2.03;;;0.77;;
12703;SDS011;6416;52.182;7.650;2023-04-25T11:44:03;1.55;;;0.73;;
12703;SDS011;6416;52.182;7.650;2023-04-25T11:46:30;1.17;;;0.70;;
12703;SDS011;6416;52.182;7.650;2023-04-25T11:48:55;1.83;;;0.90;;
12703;SDS011;6416;52.182;7.650;2023-04-25T11:51:22;1.60;;;0.80;;
12703;SDS011;6416;52.182;7.650;2023-04-25T11:53:47;0.55;;;0.50;;
12703;SDS011;6416;52.182;7.650;2023-04-25T11:56:13;1.40;;;0.77;;
12703;SDS011;6416;52.182;7.650;2023-04-25T11:58:55;2.08;;;0.98;;
12703;SDS011;6416;52.182;7.650;2023-04-25T12:03:58;1.98;;;1.13;;
12703;SDS011;6416;52.182;7.650;2023-04-25T12:06:38;3.35;;;0.73;;
12703;SDS011;6416;52.182;7.650;2023-04-25T12:09:07;2.20;;;1.40;;
12703;SDS011;6416;52.182;7.650;2023-04-25T12:11:43;2.10;;;1.30;;
12703;SDS011;6416;52.182;7.650;2023-04-25T12:14:20;3.03;;;1.20;;
12703;SDS011;6416;52.182;7.650;2023-04-25T12:16:50;3.95;;;1.85;;
12703;SDS011;6416;52.182;7.650;2023-04-25T12:19:16;2.42;;;1.88;;
12703;SDS011;6416;52.182;7.650;2023-04-25T12:21:42;3.50;;;1.73;;
12703;SDS011;6416;52.182;7.650;2023-04-25T12:26:47;4.55;;;1.38;;
12703;SDS011;6416;52.182;7.650;2023-04-25T12:29:23;2.60;;;1.10;;
12703;SDS011;6416;52.182;7.650;2023-04-25T12:31:50;3.67;;;1.80;;
12703;SDS011;6416;52.182;7.650;2023-04-25T12:34:18;5.18;;;1.67;;
12703;SDS011;6416;52.182;7.650;2023-04-25T12:36:44;2.05;;;1.30;;
12703;SDS011;6416;52.182;7.650;2023-04-25T12:39:14;3.22;;;1.58;;
12703;SDS011;6416;52.182;7.650;2023-04-25T12:41:43;2.55;;;1.30;;
12703;SDS011;6416;52.182;7.650;2023-04-25T12:44:09;2.20;;;1.17;;
12703;SDS011;6416;52.182;7.650;2023-04-25T12:46:35;1.38;;;1.00;;
12703;SDS011;6416;52.182;7.650;2023-04-25T12:49:01;1.90;;;1.00;;
12703;SDS011;6416;52.182;7.650;2023-04-25T12:51:26;2.58;;;1.20;;
12703;SDS011;6416;52.182;7.650;2023-04-25T12:53:52;3.92;;;1.70;;
12703;SDS011;6416;52.182;7.650;2023-04-25T12:56:17;2.35;;;1.02;;
12703;SDS011;6416;52.182;7.650;2023-04-25T12:58:43;2.40;;;1.20;;
12703;SDS011;6416;52.182;7.650;2023-04-25T13:01:10;1.75;;;0.93;;
12703;SDS011;6416;52.182;7.650;2023-04-25T13:03:35;1.88;;;1.02;;
12703;SDS011;6416;52.182;7.650;2023-04-25T13:06:01;0.95;;;0.80;;
12703;SDS011;6416;52.182;7.650;2023-04-25T13:08:26;1.40;;;0.95;;
12703;SDS011;6416;52.182;7.650;2023-04-25T13:10:51;2.20;;;0.95;;
12703;SDS011;6416;52.182;7.650;2023-04-25T13:13:17;1.25;;;1.00;;
12703;SDS011;6416;52.182;7.650;2023-04-25T13:15:43;1.98;;;1.02;;
12703;SDS011;6416;52.182;7.650;2023-04-25T13:18:08;2.45;;;1.00;;
12703;SDS011;6416;52.182;7.650;2023-04-25T13:20:34;1.48;;;0.88;;
12703;SDS011;6416;52.182;7.650;2023-04-25T13:22:59;1.80;;;0.95;;
12703;SDS011;6416;52.182;7.650;2023-04-25T13:25:25;1.83;;;0.90;;
12703;SDS011;6416;52.182;7.650;2023-04-25T13:27:50;2.28;;;1.10;;
12703;SDS011;6416;52.182;7.650;2023-04-25T13:30:16;3.03;;;1.17;;
12703;SDS011;6416;52.182;7.650;2023-04-25T13:32:41;1.38;;;0.95;;
12703;SDS011;6416;52.182;7.650;2023-04-25T13:35:08;1.35;;;1.10;;
12703;SDS011;6416;52.182;7.650;2023-04-25T13:37:36;1.55;;;1.20;;
12703;SDS011;6416;52.182;7.650;2023-04-25T13:40:06;2.85;;;1.20;;
12703;SDS011;6416;52.182;7.650;2023-04-25T13:42:33;2.05;;;1.10;;
12703;SDS011;6416;52.182;7.650;2023-04-25T13:44:58;2.10;;;1.30;;
12703;SDS011;6416;52.182;7.650;2023-04-25T13:47:24;2.30;;;1.42;;
12703;SDS011;6416;52.182;7.650;2023-04-25T13:49:51;2.45;;;1.60;;
12703;SDS011;6416;52.182;7.650;2023-04-25T13:52:16;1.80;;;1.20;;
12703;SDS011;6416;52.182;7.650;2023-04-25T13:54:42;2.03;;;1.10;;
12703;SDS011;6416;52.182;7.650;2023-04-25T13:57:07;2.67;;;1.48;;
12703;SDS011;6416;52.182;7.650;2023-04-25T13:59:33;2.00;;;1.10;;
12703;SDS011;6416;52.182;7.650;2023-04-25T14:01:58;2.92;;;1.40;;
12703;SDS011;6416;52.182;7.650;2023-04-25T14:04:24;2.78;;;1.23;;
12703;SDS011;6416;52.182;7.650;2023-04-25T14:06:49;3.22;;;1.35;;
12703;SDS011;6416;52.182;7.650;2023-04-25T14:09:15;2.08;;;1.15;;
12703;SDS011;6416;52.182;7.650;2023-04-25T14:11:41;2.58;;;1.38;;
12703;SDS011;6416;52.182;7.650;2023-04-25T14:14:06;1.75;;;1.08;;
12703;SDS011;6416;52.182;7.650;2023-04-25T14:16:32;1.77;;;1.02;;
12703;SDS011;6416;52.182;7.650;2023-04-25T14:18:58;1.67;;;0.90;;
12703;SDS011;6416;52.182;7.650;2023-04-25T14:21:24;1.95;;;1.30;;
12703;SDS011;6416;52.182;7.650;2023-04-25T14:23:49;2.35;;;1.27;;
12703;SDS011;6416;52.182;7.650;2023-04-25T14:26:15;3.78;;;1.30;;
12703;SDS011;6416;52.182;7.650;2023-04-25T14:28:40;2.28;;;1.20;;
12703;SDS011;6416;52.182;7.650;2023-04-25T14:31:06;18.13;;;12.60;;
12703;SDS011;6416;52.182;7.650;2023-04-25T14:33:31;11.27;;;8.52;;
12703;SDS011;6416;52.182;7.650;2023-04-25T14:35:56;5.97;;;4.22;;
12703;SDS011;6416;52.182;7.650;2023-04-25T14:38:22;3.13;;;2.30;;
12703;SDS011;6416;52.182;7.650;2023-04-25T14:40:48;3.25;;;1.73;;
12703;SDS011;6416;52.182;7.650;2023-04-25T14:43:14;2.00;;;1.25;;
12703;SDS011;6416;52.182;7.650;2023-04-25T14:45:39;1.67;;;1.13;;
12703;SDS011;6416;52.182;7.650;2023-04-25T14:48:05;4.95;;;1.60;;
12703;SDS011;6416;52.182;7.650;2023-04-25T14:50:30;2.70;;;1.27;;
12703;SDS011;6416;52.182;7.650;2023-04-25T14:52:55;1.80;;;1.10;;
12703;SDS011;6416;52.182;7.650;2023-04-25T14:55:21;1.40;;;1.07;;
12703;SDS011;6416;52.182;7.650;2023-04-25T14:57:46;2.07;;;1.20;;
12703;SDS011;6416;52.182;7.650;2023-04-25T15:00:12;2.30;;;1.20;;
12703;SDS011;6416;52.182;7.650;2023-04-25T15:02:38;2.40;;;1.30;;
12703;SDS011;6416;52.182;7.650;2023-04-25T15:05:03;1.43;;;1.00;;
12703;SDS011;6416;52.182;7.650;2023-04-25T15:07:29;2.43;;;0.90;;
12703;SDS011;6416;52.182;7.650;2023-04-25T15:09:55;2.40;;;0.93;;
12703;SDS011;6416;52.182;7.650;2023-04-25T15:12:20;2.50;;;1.17;;